logo
App data

Lands of Hope Redemption

Lands of Hope Redemption is a massive 2D RPG with MMORPG elements, play with hundreds and even thousands of your friends OR simply play as a lone wolf. At the start of the game you are free to choose one of our template classes or build your own class and be unique!
Store | Hub | SteamDB | Site
Developer: Regal Computer Services Publisher: Regal Computer Services
Genre: Adventure, RPG
Languages: English
Tags: Adventure (21), RPG (20)
Category: Single-player, Multi-player, MMO, Cross-Platform Multiplayer
Release date: Oct 15, 2015
N/A
Owners: 0 .. 20,000
Followers: 135
Playtime total: 00:14 (average) 00:14 (median)

Steam Spy is still in beta, so expect major bugs.

Owners data:

Access restricted.

This feature is only available to users with special access rights. Sorry.

If you want to proceed, you need to register or log in first and then back Steam Spy on Patreon. Look for Indie or Pro pledge.

Don't forget to use the same email as on Steam Spy!

Audience in 2 weeks:

Access restricted.

This feature is only available to users with special access rights. Sorry.

If you want to proceed, you need to register or log in first and then back Steam Spy on Patreon. Look for Indie or Pro pledge.

Don't forget to use the same email as on Steam Spy!

Peak daily concurrent players:

CCU data courtesy of SteamDB. Used with permission.

Hourly concurrent players:

YouTube:

The views data is based on top 50 videos uploaded last week. Actual number of views might be more than the number shown.

The displayed number of videos uploaded yesterday is limited to 50, so if there were more videos uploaded, the number will still show 50.

If the game has commonly used word as its name (like "FEAR" or "Volume") its number of Youtube views might be wrong.

Games similar to this one:

# Game Release date
Price
Score rank
(Userscore / Metascore)
Owners
Players
Playtime (Median)
1 Z-Exemplar Nov 25, 2016 $3.99N/A (N/A)0 .. 20,0000%00:00 (00:00)
2 The Sea Will Claim Everything Mar 24, 2016 $9.9999% (98%)0 .. 20,0000%00:00 (00:00)
3 Pocket Kingdom Dec 8, 2016 $6.99N/A (N/A)0 .. 20,0000%00:00 (00:00)
4 In the Raven Shadow – Ve stínu havrana Jul 11, 2017 $1.19N/A (N/A)0 .. 20,0000%00:00 (00:00)
5 Cosmic Sugar VR Nov 27, 2016 Free93% (95%)100,000 .. 200,0002.74%00:17 (00:09)
6 OLDTV Jul 15, 2017 Free93% (95%)200,000 .. 500,0000.35%00:32 (00:21)
7 Ballads of Reemus: When the Bed Bites Jan 27, 2012 $4.99N/A (N/A)0 .. 20,0000%00:00 (00:00)
8 The Lonesome Fog Mar 24, 2016 $4.99N/A (N/A)20,000 .. 50,0000%00:00 (00:00)
9 Brighter Day Jul 17, 2015 $2.99N/A (N/A)0 .. 20,0000%00:00 (00:00)
10 Thread Studio Sep 29, 2016 FreeN/A (N/A)0 .. 20,0000%00:00 (00:00)
11 Dragon Age: Origins Awakening Mar 16, 2010 $9.9983% (92%/82%)100,000 .. 200,0000%00:00 (00:00)
12 You Have 10 Seconds Aug 2, 2016 Free77% (90%)200,000 .. 500,0000.31%00:04 (00:01)
13 Pan-Pan Aug 25, 2016 $12.9977% (90%)0 .. 20,0000%00:00 (00:00)
14 Cubixx HD Jan 28, 2016 $8.99N/A (N/A)0 .. 20,0000%00:00 (00:00)
15 Viridi Aug 19, 2015 Free77% (90%/46%)500,000 .. 1,000,0001.45%00:20 (00:44)
16 Party Jousting Mar 1, 2016 Free77% (90%)500,000 .. 1,000,0000%00:00 (00:00)
17 Jacob Jones and the Bigfoot Mystery : Episode 2 Sep 23, 2014 $3.99N/A (N/A)0 .. 20,0000%00:00 (00:00)
18 Black Ink Feb 8, 2016 $59.9971% (88%)20,000 .. 50,0000%00:00 (00:00)
19 Nimble Writer Apr 21, 2015 $9.9968% (87%)20,000 .. 50,0000%00:00 (00:00)
20 Pilot Brothers 2 Dec 31, 2014 $4.99N/A (N/A)0 .. 20,0000%00:00 (00:00)
21 Call of Cthulhu: Shadow of the Comet Nov 4, 2015 $5.99N/A (N/A)0 .. 20,0000%00:00 (00:00)
22 SOLITUNE Apr 25, 2017 $1.99N/A (N/A)0 .. 20,0000%00:00 (00:00)
23 The Storm Guard: Darkness is Coming Aug 25, 2016 $19.9950% (80%)0 .. 20,0000%00:00 (00:00)
24 Fences Mar 29, 2017 $9.9948% (79%)20,000 .. 50,0004.7%00:01 (00:01)
25 Foxhole Jul 27, 2017 $19.9948% (79%)200,000 .. 500,0004.97%17:44 (14:05)
26 Prominence Nov 6, 2015 $19.9946% (78%)0 .. 20,0000%00:00 (00:00)
27 SVRVIVE: The Deus Helix Nov 17, 2016 $18.9946% (78%)0 .. 20,0000%00:00 (00:00)
28 Ambre - a heartbreaking kinetic novel Jun 9, 2017 Free42% (76%)50,000 .. 100,0000%00:00 (00:00)
29 Call of Cthulhu: Prisoner of Ice Nov 4, 2015 $5.99N/A (N/A)20,000 .. 50,0000%00:00 (00:00)
30 Just Ignore Them Apr 28, 2017 $3.9938% (74%)0 .. 20,0000%00:00 (00:00)
31 IKEA VR Experience Apr 4, 2016 Free36% (73%)200,000 .. 500,0000.47%00:04 (00:01)
32 Mausoleum of the Medusa Oct 27, 2016 Free36% (73%)0 .. 20,0000%00:00 (00:00)
33 Krita Jun 10, 2014 $9.9935% (72%)0 .. 20,00040%04:40 (02:54)
34 Wild Warfare Jul 15, 2014 N/A31% (70%)200,000 .. 500,0000%00:00 (00:00)
35 The Morgue Fissure Between Worlds Mar 30, 2017 $0.99N/A (N/A)0 .. 20,0000%00:00 (00:00)
36 The Revenge of Johnny Bonasera: Episode 1 Oct 31, 2016 $3.99N/A (N/A)0 .. 20,0000%00:00 (00:00)
37 Clown2Beat Oct 26, 2016 FreeN/A (N/A)20,000 .. 50,0000%00:00 (00:00)
38 Tony Tough and the Night of Roasted Moths Dec 1, 1997 $9.99N/A (N/A/68%)0 .. 20,0000%00:00 (00:00)
39 Elminage Gothic Sep 18, 2014 $9.9919% (61%)0 .. 20,0000%00:00 (00:00)
40 CGWallpapers Nov 30, 2016 $4.99N/A (N/A)0 .. 20,0003.33%00:01 (00:00)
41 The Big Secret of a Small Town Oct 22, 2015 $6.9915% (57%)0 .. 20,0000%00:00 (00:00)
42 Unhappy Ever After Jan 20, 2017 $0.99N/A (N/A)0 .. 20,0000%00:00 (00:00)
43 Escape The Lost Kingdom: The Forgotten Pharaoh Aug 6, 2010 $4.9914% (56%)20,000 .. 50,0000%00:00 (00:00)
44 Mystery Mine May 18, 2017 $3.9914% (56%)100,000 .. 200,0003.61%03:42 (04:33)
45 Fractasia Nov 17, 2016 FreeN/A (N/A)0 .. 20,0000%00:00 (00:00)
46 D.W.A.R.F.S. Oct 6, 2008 $5.99N/A (N/A)0 .. 20,0000%00:00 (00:00)
47 Multiplayer FPS Demo Jul 6, 2017 Free13% (54%)50,000 .. 100,0000%00:00 (00:00)
48 Torn Tales Jan 17, 2017 $10.99N/A (N/A)20,000 .. 50,0000%00:00 (00:00)
49 Pilot Brothers 3: Back Side of the Earth Jan 22, 2015 $4.99N/A (N/A)0 .. 20,0000%00:00 (00:00)
50 Black Island Oct 14, 2015 $2.99N/A (N/A)0 .. 20,0000%00:00 (00:00)
51 After Life - Story of a Father Nov 25, 2016 $5.99N/A (N/A)0 .. 20,0000%00:00 (00:00)
52 Playing History: Vikings Jul 1, 2015 $2.99N/A (N/A)20,000 .. 50,0000%00:00 (00:00)
53 Ways of History Sep 1, 2017 Free9% (48%)50,000 .. 100,0000%00:00 (00:00)
54 Astro Lords: Oort Cloud Jan 15, 2016 FreeN/A (N/A)50,000 .. 100,0000%00:00 (00:00)
55 De-Void Sep 2, 2016 $7.99N/A (N/A)20,000 .. 50,0000%00:00 (00:00)
56 Bayou Island - Point and Click Adventure Feb 28, 2017 $1.99N/A (N/A)0 .. 20,0000%00:00 (00:00)
57 Maze Sounds Oct 1, 2016 $4.99N/A (N/A)0 .. 20,0000%00:00 (00:00)
58 Ragnarok Journey Jun 12, 2017 Free4% (37%)100,000 .. 200,0000%00:00 (00:00)
59 Vault Cracker May 15, 2014 $4.99N/A (N/A)0 .. 20,0000%00:00 (00:00)
60 BattleSpace Sep 27, 2013 N/A4% (34%)100,000 .. 200,0000%00:00 (00:00)
61 iTownGamePlay UNIVERSE Jul 19, 2017 FreeN/A (N/A)20,000 .. 50,00010.71%334:16 (222:47)
62 VR Gallery Oct 5, 2018 $2.99N/A (N/A)0 .. 20,0000%00:00 (00:00)

Tags over time:

Access restricted.

This feature is only available to users with special access rights. Sorry.

If you want to proceed, you need to register or log in first and then back Steam Spy on Patreon. Look for Indie or Pro pledge.

Don't forget to use the same email as on Steam Spy!

Owners of this game also own:

Access restricted.

This feature is only available to users with special access rights. Sorry.

If you want to proceed, you need to register or log in first and then back Steam Spy on Patreon. Look for Indie or Pro pledge.

Don't forget to use the same email as on Steam Spy!

Playtime distribution:

Access restricted.

This feature is only available to users with special access rights. Sorry.

If you want to proceed, you need to register or log in first and then back Steam Spy on Patreon. Look for Indie or Pro pledge.

Don't forget to use the same email as on Steam Spy!

Playtime (2 weeks):

Access restricted.

This feature is only available to users with special access rights. Sorry.

If you want to proceed, you need to register or log in first and then back Steam Spy on Patreon. Look for Indie or Pro pledge.

Don't forget to use the same email as on Steam Spy!

User reviews:

Login required.

Please register or log in to see this information.